Time;durP1;ratioP1;P1;durP2;ratioP2;P2;SDS_P1;SDS_P2;PMS_P1;PMS_P2;Temp;Humidity;BMP_temperature;BMP_pressure;BME280_temperature;BME280_humidity;BME280_pressure;Samples;Min_cycle;Max_cycle;Signal;HPM_P1;HPM_P2
2021/08/14 00:01:23;;;;;;;2.03;1.83;;;20.90;75.70;;;;;;10327294;28;20211;-58
2021/08/14 00:06:45;;;;;;;2.30;2.10;;;20.90;75.70;;;;;;10328918;28;20195;-60
2021/08/14 00:12:09;;;;;;;1.80;1.70;;;20.80;75.60;;;;;;10336474;28;20223;-58
2021/08/14 00:17:31;;;;;;;1.73;1.60;;;20.90;75.60;;;;;;10336542;28;20195;-60
2021/08/14 00:22:53;;;;;;;2.40;1.97;;;20.90;75.60;;;;;;10335108;28;20764;-60
2021/08/14 00:28:18;;;;;;;2.10;1.90;;;20.90;75.60;;;;;;10335334;28;20218;-60
2021/08/14 00:33:40;;;;;;;1.73;1.63;;;20.90;75.60;;;;;;10334830;28;20294;-60
2021/08/14 00:39:02;;;;;;;2.07;1.73;;;20.90;75.60;;;;;;10334402;28;20195;-58
2021/08/14 00:44:26;;;;;;;1.97;1.50;;;20.90;75.60;;;;;;10345154;28;20229;-60
2021/08/14 00:49:48;;;;;;;1.73;1.43;;;20.90;75.60;;;;;;10341375;28;20293;-59
2021/08/14 00:55:12;;;;;;;2.10;1.90;;;20.90;75.60;;;;;;10351157;28;20300;-60
2021/08/14 01:00:36;;;;;;;1.83;1.60;;;20.80;75.50;;;;;;10356293;28;20211;-60
2021/08/14 01:05:59;;;;;;;2.33;2.13;;;20.80;75.50;;;;;;10333826;28;20199;-60
2021/08/14 01:11:22;;;;;;;1.70;1.60;;;20.80;75.50;;;;;;10321834;28;20222;-60
2021/08/14 01:16:45;;;;;;;1.83;1.73;;;20.90;75.60;;;;;;10333985;28;20210;-60
2021/08/14 01:22:10;;;;;;;2.37;1.70;;;20.80;75.50;;;;;;10333375;28;20222;-60
2021/08/14 01:27:34;;;;;;;2.07;1.87;;;20.80;75.80;;;;;;10333786;28;20201;-59
2021/08/14 01:32:56;;;;;;;2.03;1.70;;;20.80;76.20;;;;;;10332606;28;20315;-60
2021/08/14 01:38:18;;;;;;;1.57;1.30;;;20.90;76.20;;;;;;10334017;28;20203;-60
2021/08/14 01:43:56;;;;;;;1.60;1.43;;;20.80;75.90;;;;;;10339908;28;20604;-60
2021/08/14 01:49:19;;;;;;;1.73;1.63;;;20.80;76.60;;;;;;10365567;28;20210;-59
2021/08/14 01:54:41;;;;;;;2.30;1.63;;;20.80;76.10;;;;;;10347920;28;20199;-60
2021/08/14 02:00:06;;;;;;;1.73;1.63;;;20.80;76.10;;;;;;10340384;28;20226;-60
2021/08/14 02:05:29;;;;;;;2.13;1.83;;;20.80;76.00;;;;;;10331529;28;20206;-59
2021/08/14 02:10:51;;;;;;;1.70;1.50;;;20.80;75.90;;;;;;10330032;28;20215;-60
2021/08/14 02:16:15;;;;;;;2.50;1.63;;;20.80;75.90;;;;;;10332906;28;20195;-60
2021/08/14 02:21:37;;;;;;;1.73;1.57;;;20.80;75.90;;;;;;10331307;28;20211;-60
2021/08/14 02:27:00;;;;;;;1.60;1.50;;;20.80;75.90;;;;;;10330119;28;20198;-60
2021/08/14 02:32:24;;;;;;;2.20;1.93;;;20.80;75.90;;;;;;10328345;28;20345;-59
2021/08/14 02:37:46;;;;;;;1.60;1.50;;;20.80;75.90;;;;;;10330908;28;20191;-59
2021/08/14 02:43:08;;;;;;;1.80;1.67;;;20.80;75.80;;;;;;10328278;28;20235;-60
2021/08/14 02:48:32;;;;;;;1.90;1.70;;;20.80;75.80;;;;;;10346261;28;20696;-60
2021/08/14 02:53:54;;;;;;;2.17;1.77;;;20.80;75.90;;;;;;10344571;28;20246;-59
2021/08/14 02:59:16;;;;;;;2.13;1.60;;;20.80;75.90;;;;;;10333584;28;20202;-57
2021/08/14 03:04:40;;;;;;;2.23;1.67;;;20.80;75.80;;;;;;10336216;28;20207;-61
2021/08/14 03:10:02;;;;;;;1.60;1.40;;;20.80;75.90;;;;;;10343996;28;20219;-58
2021/08/14 03:15:24;;;;;;;1.70;1.43;;;20.80;75.90;;;;;;10329920;28;20203;-59
2021/08/14 03:20:47;;;;;;;1.90;1.40;;;20.80;75.90;;;;;;10329011;28;20736;-58
2021/08/14 03:26:09;;;;;;;2.30;1.50;;;20.80;75.90;;;;;;10328795;28;20625;-59
2021/08/14 03:31:31;;;;;;;1.60;1.50;;;20.80;76.40;;;;;;10328600;28;20732;-59
2021/08/14 03:36:55;;;;;;;2.27;1.60;;;20.80;76.40;;;;;;10338236;28;20682;-59
2021/08/14 03:42:17;;;;;;;1.50;1.30;;;20.80;76.30;;;;;;10363691;28;20226;-59
2021/08/14 03:47:39;;;;;;;1.40;1.30;;;20.80;76.30;;;;;;10358505;28;20203;-59
2021/08/14 03:53:02;;;;;;;1.40;1.30;;;20.80;76.40;;;;;;10345104;28;20230;-59
2021/08/14 03:58:24;;;;;;;1.53;1.43;;;20.80;76.30;;;;;;10301340;28;20210;-59
2021/08/14 04:03:46;;;;;;;2.23;1.63;;;20.80;76.20;;;;;;10329241;28;20211;-60
2021/08/14 04:09:10;;;;;;;1.60;1.47;;;20.80;76.20;;;;;;10327800;28;20211;-59
2021/08/14 04:14:32;;;;;;;1.33;1.23;;;20.80;76.20;;;;;;10319876;28;20195;-60
2021/08/14 04:19:54;;;;;;;1.50;1.40;;;20.80;76.20;;;;;;10327139;28;20203;-59
2021/08/14 04:25:17;;;;;;;1.90;1.50;;;20.80;76.10;;;;;;10330689;28;20642;-59
2021/08/14 04:30:39;;;;;;;1.50;1.40;;;20.80;76.20;;;;;;10359723;28;20716;-59
2021/08/14 04:36:01;;;;;;;1.73;1.60;;;20.80;76.10;;;;;;10348336;28;20218;-58
2021/08/14 04:41:25;;;;;;;1.97;1.60;;;20.80;76.10;;;;;;10327625;28;20787;-59
2021/08/14 04:46:47;;;;;;;1.70;1.30;;;20.80;76.10;;;;;;10326561;28;20203;-58
2021/08/14 04:52:09;;;;;;;1.53;1.30;;;20.80;76.10;;;;;;10326383;28;20242;-59
2021/08/14 04:57:32;;;;;;;1.50;1.40;;;20.80;76.10;;;;;;10356053;28;20203;-59
2021/08/14 05:02:54;;;;;;;1.70;1.37;;;20.80;76.10;;;;;;10334254;28;20211;-58
2021/08/14 05:08:16;;;;;;;1.53;1.30;;;20.80;76.00;;;;;;10334264;28;20206;-59
2021/08/14 05:13:40;;;;;;;1.50;1.30;;;20.80;75.90;;;;;;10333771;28;20223;-60
2021/08/14 05:19:02;;;;;;;1.57;1.47;;;20.80;75.90;;;;;;10333800;28;20195;-60
2021/08/14 05:24:24;;;;;;;1.47;1.37;;;20.80;75.90;;;;;;10334143;28;20206;-60
2021/08/14 05:29:47;;;;;;;1.33;1.20;;;20.80;75.90;;;;;;10358455;28;20229;-60
2021/08/14 05:35:10;;;;;;;1.50;1.40;;;20.80;75.90;;;;;;10368540;28;20195;-60
2021/08/14 05:40:32;;;;;;;1.50;1.30;;;20.80;75.90;;;;;;10373444;28;20222;-60
2021/08/14 05:45:56;;;;;;;1.73;1.23;;;20.80;75.90;;;;;;10345636;28;20203;-59
2021/08/14 05:51:18;;;;;;;1.97;1.37;;;20.80;76.00;;;;;;10332288;28;20343;-59
2021/08/14 05:56:40;;;;;;;1.53;1.43;;;20.80;75.90;;;;;;10334043;28;20698;-59
2021/08/14 06:02:04;;;;;;;1.60;1.47;;;20.80;76.00;;;;;;10365703;28;20246;-59
2021/08/14 06:07:26;;;;;;;1.90;1.20;;;20.80;76.10;;;;;;10345796;28;20562;-60
2021/08/14 06:12:48;;;;;;;1.53;1.27;;;20.80;76.50;;;;;;10331428;28;20219;-60
2021/08/14 06:18:13;;;;;;;1.67;1.40;;;20.80;76.60;;;;;;10331267;28;20207;-61
2021/08/14 06:23:35;;;;;;;1.60;1.30;;;20.80;76.60;;;;;;10331509;28;20238;-61
2021/08/14 06:28:57;;;;;;;1.70;1.40;;;20.80;76.50;;;;;;10328412;28;20674;-62
2021/08/14 06:34:21;;;;;;;1.80;1.30;;;20.80;76.50;;;;;;10330318;28;20203;-61
2021/08/14 06:39:43;;;;;;;1.70;1.50;;;20.70;76.40;;;;;;10329467;28;20214;-61
2021/08/14 06:45:07;;;;;;;2.00;1.27;;;20.70;76.40;;;;;;10338712;28;20261;-61
2021/08/14 06:50:30;;;;;;;1.30;1.20;;;20.70;76.40;;;;;;10363907;28;20229;-61
2021/08/14 06:55:52;;;;;;;1.60;1.30;;;20.70;76.40;;;;;;10329199;28;20597;-61
2021/08/14 07:01:14;;;;;;;1.40;1.20;;;20.70;76.40;;;;;;10367622;28;20222;-61
2021/08/14 07:06:37;;;;;;;2.23;1.37;;;20.70;76.40;;;;;;10370829;28;20198;-61
2021/08/14 07:12:00;;;;;;;1.90;1.40;;;20.70;76.40;;;;;;10340439;28;20605;-60
2021/08/14 07:17:22;;;;;;;2.13;1.30;;;20.70;76.40;;;;;;10329196;28;20574;-61
2021/08/14 07:22:45;;;;;;;2.20;1.27;;;20.70;76.40;;;;;;10330426;28;20215;-61
2021/08/14 07:28:07;;;;;;;1.70;1.37;;;20.70;76.50;;;;;;10339749;28;20199;-60
2021/08/14 07:33:29;;;;;;;1.40;1.23;;;20.70;76.40;;;;;;10369791;28;20229;-61
2021/08/14 07:38:53;;;;;;;2.03;1.40;;;20.70;76.40;;;;;;10369653;28;20576;-61
2021/08/14 07:44:15;;;;;;;2.10;1.60;;;20.70;76.50;;;;;;10364370;28;20205;-61
2021/08/14 07:49:37;;;;;;;1.43;1.33;;;20.70;76.50;;;;;;10369437;28;20229;-61
2021/08/14 07:55:00;;;;;;;1.43;1.30;;;20.70;76.50;;;;;;10332931;28;20203;-61
2021/08/14 08:00:24;;;;;;;1.53;1.30;;;20.70;76.50;;;;;;10328577;28;20215;-61
2021/08/14 08:05:46;;;;;;;1.47;1.37;;;20.70;76.50;;;;;;10336807;28;20199;-61
2021/08/14 08:11:10;;;;;;;1.60;1.33;;;20.70;76.50;;;;;;10304456;28;20222;-61
2021/08/14 08:16:32;;;;;;;1.60;1.30;;;20.70;76.30;;;;;;10329379;28;20207;-60
2021/08/14 08:21:55;;;;;;;1.47;1.37;;;20.70;76.70;;;;;;10328551;28;20693;-61
2021/08/14 08:27:18;;;;;;;2.33;1.27;;;20.70;76.80;;;;;;10328718;28;20198;-62
2021/08/14 08:32:40;;;;;;;1.27;1.17;;;20.70;76.80;;;;;;10334457;28;20215;-62
2021/08/14 08:38:02;;;;;;;1.40;1.27;;;20.70;76.80;;;;;;10335600;28;20194;-60
2021/08/14 08:43:25;;;;;;;3.43;1.37;;;20.60;76.70;;;;;;10342840;28;20235;-62
2021/08/14 08:48:51;;;;;;;3.47;1.40;;;20.70;76.70;;;;;;10335778;28;20254;-61
2021/08/14 08:54:14;;;;;;;1.20;1.10;;;20.70;76.70;;;;;;10351846;28;20218;-62
2021/08/14 08:59:37;;;;;;;1.50;1.40;;;20.60;76.60;;;;;;10334616;28;20582;-61
2021/08/14 09:05:08;;;;;;;1.40;1.20;;;20.60;76.60;;;;;;10343035;28;20665;-60
2021/08/14 09:10:30;;;;;;;1.50;1.40;;;20.60;76.60;;;;;;10335412;28;20234;-61
2021/08/14 09:15:54;;;;;;;1.97;1.20;;;20.60;76.70;;;;;;10335698;28;20203;-61
2021/08/14 09:21:29;;;;;;;1.50;1.00;;;20.60;76.70;;;;;;10335110;28;20223;-61
2021/08/14 09:27:02;;;;;;;1.80;1.30;;;20.60;76.60;;;;;;10350838;28;20206;-61
2021/08/14 09:32:26;;;;;;;1.57;1.40;;;20.60;76.60;;;;;;10374298;28;20573;-61
2021/08/14 09:37:48;;;;;;;1.50;1.17;;;20.70;76.80;;;;;;10353369;28;20195;-61
2021/08/14 09:43:11;;;;;;;1.43;1.23;;;20.60;76.70;;;;;;10332195;28;20227;-62
2021/08/14 09:48:35;;;;;;;1.53;1.27;;;20.60;76.70;;;;;;10331907;28;20677;-61
2021/08/14 09:53:57;;;;;;;1.13;1.03;;;20.60;76.80;;;;;;10331449;28;20223;-61
2021/08/14 09:59:20;;;;;;;1.43;1.27;;;20.60;76.80;;;;;;10332840;28;20199;-60
2021/08/14 10:04:45;;;;;;;1.57;1.37;;;20.60;76.80;;;;;;10339446;28;20198;-61
2021/08/14 10:10:08;;;;;;;1.40;1.20;;;20.60;76.80;;;;;;10327578;28;20225;-61
2021/08/14 10:15:30;;;;;;;2.07;1.60;;;20.60;76.80;;;;;;10333265;28;20206;-61
2021/08/14 10:20:54;;;;;;;1.60;1.27;;;20.60;76.80;;;;;;10329930;28;20215;-59
2021/08/14 10:26:18;;;;;;;1.40;1.30;;;20.60;76.80;;;;;;10330906;28;20195;-61
2021/08/14 10:31:45;;;;;;;1.30;1.20;;;20.60;76.80;;;;;;10331292;28;20729;-61
2021/08/14 10:37:35;;;;;;;1.23;1.13;;;20.60;76.90;;;;;;10330705;28;20349;-61
2021/08/14 10:42:58;;;;;;;1.63;1.30;;;20.60;76.70;;;;;;10340143;28;20223;-61
2021/08/14 10:48:53;;;;;;;1.77;1.43;;;20.60;77.00;;;;;;10333962;28;20274;-61
2021/08/14 10:54:56;;;;;;;1.43;1.33;;;20.60;76.80;;;;;;10329189;28;20227;-60
2021/08/14 11:00:28;;;;;;;2.23;1.33;;;20.60;76.80;;;;;;10360168;28;20211;-61
2021/08/14 11:05:51;;;;;;;1.70;1.07;;;20.60;77.00;;;;;;10371032;28;20190;-61
2021/08/14 11:11:38;;;;;;;2.20;1.23;;;20.60;77.00;;;;;;10354573;28;20601;-60
2021/08/14 11:17:02;;;;;;;1.57;1.20;;;20.60;77.00;;;;;;10328904;28;20191;-60
2021/08/14 11:22:30;;;;;;;1.80;1.27;;;20.60;77.10;;;;;;10289475;28;20559;-61
2021/08/14 11:27:58;;;;;;;1.73;1.30;;;20.60;77.10;;;;;;10290879;28;20195;-60
2021/08/14 11:33:24;;;;;;;1.27;1.17;;;20.60;77.10;;;;;;10285556;28;20215;-63
2021/08/14 11:38:46;;;;;;;1.00;0.90;;;20.60;77.70;;;;;;10288632;28;20335;-62
2021/08/14 11:44:10;;;;;;;1.30;1.20;;;20.60;77.10;;;;;;10309576;28;20234;-60
2021/08/14 11:49:51;;;;;;;1.20;1.10;;;20.60;77.20;;;;;;10323977;28;20218;-61
2021/08/14 11:55:13;;;;;;;1.47;1.20;;;20.60;77.00;;;;;;10336299;28;20199;-61
2021/08/14 12:00:38;;;;;;;1.33;1.10;;;20.60;77.20;;;;;;10329718;28;20226;-61
2021/08/14 12:06:07;;;;;;;1.37;1.17;;;20.60;77.20;;;;;;10335970;28;20693;-61
2021/08/14 12:11:30;;;;;;;1.70;1.40;;;20.60;77.20;;;;;;10337396;28;20223;-61
2021/08/14 12:16:59;;;;;;;1.30;1.20;;;20.60;77.20;;;;;;10336415;28;20191;-61
2021/08/14 12:22:29;;;;;;;1.60;1.17;;;20.60;77.20;;;;;;10336814;28;20215;-60
2021/08/14 12:27:52;;;;;;;1.30;1.00;;;20.60;77.20;;;;;;10336936;28;20199;-60
2021/08/14 12:33:25;;;;;;;1.60;1.10;;;20.60;77.20;;;;;;10335709;28;20237;-60
2021/08/14 12:38:50;;;;;;;1.27;1.17;;;20.60;77.20;;;;;;10335712;28;20204;-60
2021/08/14 12:44:12;;;;;;;1.73;1.33;;;20.60;77.20;;;;;;10353149;28;20206;-60
2021/08/14 12:49:36;;;;;;;1.33;1.10;;;20.60;77.20;;;;;;10376764;28;20229;-60
2021/08/14 12:54:58;;;;;;;1.57;1.20;;;20.60;77.20;;;;;;10377105;28;20716;-61
2021/08/14 13:00:20;;;;;;;1.50;1.13;;;20.60;77.20;;;;;;10346047;28;20219;-61
2021/08/14 13:05:44;;;;;;;1.33;1.23;;;20.60;77.20;;;;;;10334027;28;20191;-61
2021/08/14 13:11:06;;;;;;;1.53;1.13;;;20.60;77.20;;;;;;10332849;28;20219;-61
2021/08/14 13:16:28;;;;;;;1.33;1.07;;;20.60;77.20;;;;;;10334209;28;20203;-61
2021/08/14 13:21:53;;;;;;;1.70;1.23;;;20.60;77.30;;;;;;10342671;28;20686;-61
2021/08/14 13:27:15;;;;;;;2.27;1.50;;;20.60;77.30;;;;;;10358086;28;20574;-62
2021/08/14 13:32:38;;;;;;;2.10;1.40;;;20.60;77.30;;;;;;10333432;28;20214;-61
2021/08/14 13:38:01;;;;;;;1.13;1.00;;;20.60;77.30;;;;;;10333177;28;20202;-61
2021/08/14 13:43:23;;;;;;;1.10;1.00;;;20.60;77.30;;;;;;10333644;28;20219;-63
2021/08/14 13:48:46;;;;;;;1.83;1.03;;;20.60;77.30;;;;;;10332056;28;20669;-63
2021/08/14 13:54:10;;;;;;;1.23;1.13;;;20.60;77.30;;;;;;10333184;28;20234;-61
2021/08/14 13:59:32;;;;;;;1.60;1.20;;;20.60;77.30;;;;;;10356135;28;20234;-61
2021/08/14 14:04:54;;;;;;;1.20;1.10;;;20.60;77.30;;;;;;10336138;28;20199;-61
2021/08/14 14:10:18;;;;;;;1.40;1.30;;;20.60;77.20;;;;;;10332224;28;20222;-61
2021/08/14 14:15:40;;;;;;;1.50;1.23;;;20.60;77.10;;;;;;10332905;28;20215;-64
2021/08/14 14:21:03;;;;;;;1.40;1.20;;;20.60;77.00;;;;;;10348754;28;20219;-63
2021/08/14 14:26:26;;;;;;;1.33;1.10;;;20.60;77.00;;;;;;10331656;28;20199;-63
2021/08/14 14:31:48;;;;;;;1.30;1.20;;;20.60;77.50;;;;;;10331688;28;20573;-63
2021/08/14 14:37:10;;;;;;;1.30;1.20;;;20.60;76.90;;;;;;10331597;28;20279;-63
2021/08/14 14:42:34;;;;;;;1.20;1.10;;;20.60;76.90;;;;;;10330520;28;20219;-62
2021/08/14 14:47:56;;;;;;;1.30;1.20;;;20.60;76.90;;;;;;10334641;28;20198;-63
2021/08/14 14:53:19;;;;;;;1.50;1.30;;;20.60;77.00;;;;;;10346450;28;20234;-62
2021/08/14 14:58:43;;;;;;;1.47;1.20;;;20.60;77.00;;;;;;10353091;28;20199;-63
2021/08/14 15:04:06;;;;;;;1.27;1.00;;;20.60;77.00;;;;;;10330640;28;20710;-62
2021/08/14 15:09:28;;;;;;;1.00;1.00;;;20.60;77.00;;;;;;10330096;28;20198;-62
2021/08/14 15:14:51;;;;;;;1.23;1.00;;;20.60;77.10;;;;;;10329303;28;20586;-63
2021/08/14 15:20:14;;;;;;;1.53;1.30;;;20.60;77.10;;;;;;10335288;28;20230;-62
2021/08/14 15:25:36;;;;;;;1.20;1.10;;;20.60;77.10;;;;;;10331321;28;20554;-62
2021/08/14 15:31:00;;;;;;;1.83;1.20;;;20.60;77.10;;;;;;10330349;28;20218;-63
2021/08/14 15:36:22;;;;;;;1.57;1.20;;;20.60;77.10;;;;;;10328606;28;20697;-63
2021/08/14 15:41:44;;;;;;;1.20;1.10;;;20.70;77.20;;;;;;10329764;28;20241;-62
2021/08/14 15:47:08;;;;;;;1.20;1.10;;;20.60;77.20;;;;;;10329393;28;20199;-62
2021/08/14 15:52:30;;;;;;;1.30;1.20;;;20.60;77.20;;;;;;10335422;28;20226;-63
2021/08/14 15:57:52;;;;;;;1.30;1.00;;;20.60;77.20;;;;;;10360321;28;20199;-62
2021/08/14 16:03:16;;;;;;;1.33;1.23;;;20.60;77.30;;;;;;10329164;28;20237;-62
2021/08/14 16:08:38;;;;;;;1.60;1.17;;;20.60;77.30;;;;;;10328870;28;20203;-61
2021/08/14 16:14:01;;;;;;;1.30;1.00;;;20.60;77.30;;;;;;10328634;28;20583;-62
2021/08/14 16:19:25;;;;;;;1.10;1.00;;;20.60;77.30;;;;;;10334005;28;20202;-63
2021/08/14 16:24:47;;;;;;;1.20;1.00;;;20.60;77.40;;;;;;10361164;28;20576;-62
2021/08/14 16:30:10;;;;;;;1.03;1.00;;;20.60;77.40;;;;;;10363524;28;20210;-63
2021/08/14 16:35:34;;;;;;;1.77;1.20;;;20.60;77.40;;;;;;10369137;28;20226;-63
2021/08/14 16:40:56;;;;;;;1.90;1.30;;;20.60;77.40;;;;;;10364841;28;20218;-63
2021/08/14 16:46:18;;;;;;;1.30;1.20;;;20.60;77.30;;;;;;10329660;28;20214;-62
2021/08/14 16:51:42;;;;;;;1.13;0.90;;;20.60;77.30;;;;;;10332232;28;20215;-63
2021/08/14 16:57:05;;;;;;;1.70;1.20;;;20.60;77.30;;;;;;10366305;28;20195;-63
2021/08/14 17:02:27;;;;;;;1.20;1.10;;;20.60;77.30;;;;;;10335483;28;20216;-63
2021/08/14 17:07:51;;;;;;;1.80;1.40;;;20.60;77.30;;;;;;10334572;28;20206;-63
2021/08/14 17:13:14;;;;;;;1.50;1.20;;;20.60;77.30;;;;;;10336157;28;20223;-63
2021/08/14 17:18:36;;;;;;;1.47;1.10;;;20.60;77.30;;;;;;10333056;28;20234;-63
2021/08/14 17:23:59;;;;;;;1.10;1.00;;;20.60;77.20;;;;;;10341868;28;20215;-62
2021/08/14 17:29:22;;;;;;;1.53;1.10;;;20.60;77.20;;;;;;10334413;28;20206;-63
2021/08/14 17:34:44;;;;;;;1.33;1.10;;;20.60;77.20;;;;;;10334380;28;20219;-62
2021/08/14 17:40:09;;;;;;;1.13;1.03;;;20.60;77.20;;;;;;10332927;28;20567;-62
2021/08/14 17:45:31;;;;;;;1.47;1.20;;;20.60;77.30;;;;;;10333712;28;20190;-62
2021/08/14 17:50:53;;;;;;;1.77;1.40;;;20.60;77.20;;;;;;10329998;28;20223;-62
2021/08/14 17:56:17;;;;;;;1.23;1.13;;;20.60;77.20;;;;;;10333112;28;20218;-62
2021/08/14 18:01:39;;;;;;;1.23;1.03;;;20.60;77.30;;;;;;10359698;28;20217;-63
2021/08/14 18:07:01;;;;;;;1.30;1.20;;;20.60;77.30;;;;;;10366438;28;20200;-63
2021/08/14 18:12:25;;;;;;;1.70;1.20;;;20.60;77.30;;;;;;10347193;28;20578;-63
2021/08/14 18:17:47;;;;;;;1.60;1.40;;;20.60;77.40;;;;;;10332523;28;20811;-61
2021/08/14 18:23:09;;;;;;;2.03;1.60;;;20.60;77.40;;;;;;10332020;28;20594;-61
2021/08/14 18:28:34;;;;;;;1.30;1.20;;;20.60;77.40;;;;;;10332990;28;20199;-60
2021/08/14 18:33:56;;;;;;;1.93;1.30;;;20.60;77.50;;;;;;10330948;28;20302;-61
2021/08/14 18:39:19;;;;;;;1.20;1.10;;;20.70;77.50;;;;;;10332124;28;20191;-61
2021/08/14 18:44:43;;;;;;;1.30;1.20;;;20.70;77.60;;;;;;10330953;28;20207;-60
2021/08/14 18:50:06;;;;;;;1.33;1.23;;;20.60;77.60;;;;;;10329128;28;20223;-61
2021/08/14 18:55:28;;;;;;;1.93;1.53;;;20.60;77.60;;;;;;10343537;28;20307;-62
2021/08/14 19:00:53;;;;;;;1.33;1.17;;;20.70;77.60;;;;;;10366350;28;20711;-62
2021/08/14 19:06:15;;;;;;;1.23;1.13;;;20.70;77.70;;;;;;10366078;28;20198;-61
2021/08/14 19:11:38;;;;;;;1.37;1.27;;;20.60;77.60;;;;;;10351838;28;20226;-60
2021/08/14 19:17:01;;;;;;;1.27;1.17;;;20.70;77.70;;;;;;10330806;28;20191;-60
2021/08/14 19:22:23;;;;;;;1.80;1.33;;;20.60;77.60;;;;;;10329262;28;20567;-61
2021/08/14 19:27:46;;;;;;;1.03;1.00;;;20.70;77.70;;;;;;10338231;28;20203;-61
2021/08/14 19:33:11;;;;;;;1.30;1.20;;;20.70;77.70;;;;;;10328921;28;20219;-61
2021/08/14 19:38:33;;;;;;;1.57;1.40;;;20.70;77.80;;;;;;10330991;28;20200;-61
2021/08/14 19:43:55;;;;;;;1.67;1.17;;;20.60;77.70;;;;;;10328725;28;20257;-61
2021/08/14 19:49:18;;;;;;;1.30;1.20;;;20.70;77.80;;;;;;10334235;28;20202;-61
2021/08/14 19:54:41;;;;;;;1.50;1.30;;;20.70;77.80;;;;;;10335709;28;20491;-62
2021/08/14 20:00:04;;;;;;;1.30;1.10;;;20.70;77.80;;;;;;10328812;28;20342;-61
2021/08/14 20:05:27;;;;;;;1.20;1.10;;;20.70;77.70;;;;;;10328585;28;20195;-61
2021/08/14 20:10:50;;;;;;;1.30;1.20;;;20.70;77.70;;;;;;10327662;28;20214;-61
2021/08/14 20:16:12;;;;;;;2.63;1.50;;;20.70;77.70;;;;;;10320208;28;20226;-62
2021/08/14 20:21:36;;;;;;;1.17;1.00;;;20.70;77.70;;;;;;10325886;28;20215;-61
2021/08/14 20:26:58;;;;;;;1.93;1.33;;;20.70;77.90;;;;;;10332740;28;20558;-61
2021/08/14 20:32:21;;;;;;;1.43;1.30;;;20.70;77.90;;;;;;10338140;28;20617;-60
2021/08/14 20:37:44;;;;;;;1.53;1.40;;;20.70;77.90;;;;;;10342241;28;20202;-62
2021/08/14 20:43:06;;;;;;;1.30;1.10;;;20.70;77.90;;;;;;10360800;28;20223;-61
2021/08/14 20:48:30;;;;;;;1.40;1.23;;;20.70;77.90;;;;;;10333123;28;20235;-61
2021/08/14 20:53:53;;;;;;;1.10;1.00;;;20.70;77.90;;;;;;10364211;28;20223;-60
2021/08/14 20:59:15;;;;;;;1.40;1.10;;;20.60;77.90;;;;;;10330268;28;20192;-61
2021/08/14 21:04:37;;;;;;;1.20;1.10;;;20.70;77.90;;;;;;10341466;28;20573;-60
2021/08/14 21:10:01;;;;;;;1.70;1.33;;;20.70;78.00;;;;;;10369160;28;20226;-61
2021/08/14 21:15:23;;;;;;;1.43;1.30;;;20.70;78.00;;;;;;10336277;28;20219;-62
2021/08/14 21:20:45;;;;;;;1.63;1.30;;;20.70;78.00;;;;;;10335577;28;20226;-63
2021/08/14 21:26:09;;;;;;;1.73;1.30;;;20.70;78.00;;;;;;10333916;28;20199;-60
2021/08/14 21:31:31;;;;;;;1.10;1.00;;;20.60;77.90;;;;;;10338935;28;20241;-63
2021/08/14 21:36:53;;;;;;;1.47;1.30;;;20.70;78.00;;;;;;10354630;28;20218;-63
2021/08/14 21:42:16;;;;;;;1.47;1.20;;;20.70;78.00;;;;;;10353356;28;20719;-62
2021/08/14 21:47:39;;;;;;;1.30;1.20;;;20.70;78.00;;;;;;10334865;28;20264;-64
2021/08/14 21:53:01;;;;;;;1.90;1.40;;;20.70;78.10;;;;;;10333394;28;20219;-64
2021/08/14 21:58:24;;;;;;;1.30;1.20;;;20.70;78.00;;;;;;10335459;28;20206;-64
2021/08/14 22:03:48;;;;;;;1.20;0.83;;;20.70;78.00;;;;;;10331728;28;20218;-63
2021/08/14 22:09:10;;;;;;;1.83;1.50;;;20.70;78.00;;;;;;10332404;28;20199;-63
2021/08/14 22:14:33;;;;;;;1.67;1.30;;;20.60;78.00;;;;;;10297511;28;20214;-64
2021/08/14 22:19:55;;;;;;;1.73;1.53;;;20.70;78.10;;;;;;10332262;28;20219;-63
2021/08/14 22:25:18;;;;;;;1.77;1.30;;;20.70;78.10;;;;;;10331769;28;20657;-63
2021/08/14 22:30:42;;;;;;;1.60;1.40;;;20.70;78.10;;;;;;10290656;28;20215;-63
2021/08/14 22:36:05;;;;;;;1.53;1.40;;;20.70;78.10;;;;;;10331025;28;20215;-62
2021/08/14 22:41:30;;;;;;;1.60;1.20;;;20.70;78.10;;;;;;10339188;28;20701;-63
2021/08/14 22:46:52;;;;;;;2.17;1.70;;;20.70;78.10;;;;;;10331190;28;20671;-62
2021/08/14 22:52:14;;;;;;;1.63;1.37;;;20.70;78.10;;;;;;10335432;28;20691;-65
2021/08/14 22:57:38;;;;;;;1.97;1.60;;;20.70;78.10;;;;;;10331590;28;20697;-64
2021/08/14 23:03:01;;;;;;;2.27;1.37;;;20.70;78.10;;;;;;10335561;28;20222;-62
2021/08/14 23:08:23;;;;;;;1.70;1.50;;;20.70;78.10;;;;;;10336900;28;20191;-64
2021/08/14 23:13:47;;;;;;;1.63;1.47;;;20.70;78.10;;;;;;10331059;28;20207;-64
2021/08/14 23:19:09;;;;;;;1.80;1.43;;;20.70;78.10;;;;;;10329280;28;20209;-64
2021/08/14 23:24:32;;;;;;;2.27;1.47;;;20.70;78.10;;;;;;10329179;28;20186;-64
2021/08/14 23:29:55;;;;;;;1.70;1.33;;;20.70;78.10;;;;;;10328282;28;20230;-65
2021/08/14 23:35:19;;;;;;;1.67;1.20;;;20.70;78.10;;;;;;10328540;28;20222;-64
2021/08/14 23:40:41;;;;;;;1.93;1.53;;;20.70;78.10;;;;;;10315828;28;20227;-64
2021/08/14 23:46:03;;;;;;;1.93;1.37;;;20.70;78.10;;;;;;10348744;28;20195;-62
2021/08/14 23:51:27;;;;;;;2.77;1.70;;;20.70;78.10;;;;;;10327617;28;20582;-63
2021/08/14 23:56:49;;;;;;;1.87;1.43;;;20.60;78.10;;;;;;10329246;28;20222;-63
